Terminal Aerodrome Forecast
Issued by NWS Raleigh/Durham, NC

Home | Current Version | Previous Version | Text Only | Print | Product List | Glossary On
Versions: 1 2 3 4 5 6 7 8 9 10 11 12 13
000
FTUS42 KRAH 131720
TAFGSO
TAF
KGSO 131720Z 1318/1418 27009KT P6SM SCT250
     FM132300 22011KT P6SM SCT250 WS020/22040KT
     FM140900 24010KT P6SM SKC
     FM141500 28013G20KT P6SM SKC=

USA.gov is the U.S. government's official web portal to all federal, state and local government web resources and services.